Time;durP1;ratioP1;P1;durP2;ratioP2;P2;SDS_P1;SDS_P2;PMS_P1;PMS_P2;Temp;Humidity;BMP_temperature;BMP_pressure;BME280_temperature;BME280_humidity;BME280_pressure;Samples;Min_cycle;Max_cycle;Signal;HPM_P1;HPM_P2
2022/11/18 00:01:44;;;;;;;;;;;8.40;1.00;;;;;;6128076;23;19905;-78
2022/11/18 00:04:09;;;;;;;;;;;8.40;1.00;;;;;;6127913;23;19908;-79
2022/11/18 00:06:35;;;;;;;;;;;8.40;1.00;;;;;;6128336;23;19937;-79
2022/11/18 00:09:00;;;;;;;;;;;8.40;1.00;;;;;;6128446;23;20375;-76
2022/11/18 00:14:17;;;;;;;;;;;8.40;1.00;;;;;;6128002;23;19908;-78
2022/11/18 00:16:44;;;;;;;;;;;8.40;1.00;;;;;;6128539;23;19901;-78
2022/11/18 00:19:09;;;;;;;;;;;8.40;1.00;;;;;;6128280;23;19921;-78
2022/11/18 00:21:35;;;;;;;;;;;8.40;1.00;;;;;;6128089;23;19901;-77
2022/11/18 00:24:00;;;;;;;;;;;8.40;1.00;;;;;;6127743;23;19939;-77
2022/11/18 00:26:26;;;;;;;;;;;8.40;1.00;;;;;;6128060;23;20340;-77
2022/11/18 00:28:51;;;;;;;;;;;8.40;1.00;;;;;;6127713;23;19907;-78
2022/11/18 00:31:17;;;;;;;;;;;8.40;1.00;;;;;;6127914;23;19955;-77
2022/11/18 00:33:42;;;;;;;;;;;8.40;1.00;;;;;;6128695;23;19901;-78
2022/11/18 00:36:09;;;;;;;;;;;8.30;1.00;;;;;;6126043;23;19908;-78
2022/11/18 00:39:04;;;;;;;;;;;8.30;1.00;;;;;;6127301;23;19905;-78
2022/11/18 00:42:50;;;;;;;;;;;8.30;1.00;;;;;;6072729;23;19916;-77
2022/11/18 00:44:15;;;;;;;;;;;8.30;1.00;;;;;;6098439;23;19929;-79
2022/11/18 00:46:41;;;;;;;;;;;8.30;1.00;;;;;;6073326;23;19901;-79
2022/11/18 00:49:07;;;;;;;;;;;8.30;1.00;;;;;;6099041;23;19924;-77
2022/11/18 00:51:32;;;;;;;;;;;8.30;1.00;;;;;;6098625;23;19909;-77
2022/11/18 00:53:58;;;;;;;;;;;8.30;1.00;;;;;;6099117;23;19932;-78
2022/11/18 00:56:23;;;;;;;;;;;8.30;1.00;;;;;;6098848;23;20323;-76
2022/11/18 00:58:49;;;;;;;;;;;8.30;1.00;;;;;;6098840;23;19984;-77
2022/11/18 01:01:14;;;;;;;;;;;8.40;1.00;;;;;;6098729;23;19909;-78
2022/11/18 01:03:40;;;;;;;;;;;8.30;1.00;;;;;;6098643;23;19901;-77
2022/11/18 01:06:05;;;;;;;;;;;8.30;1.00;;;;;;6098718;23;19909;-80
2022/11/18 01:08:31;;;;;;;;;;;8.20;1.00;;;;;;6098661;23;19933;-77
2022/11/18 01:13:17;;;;;;;;;;;8.20;1.00;;;;;;6099278;23;19935;-77
2022/11/18 01:13:42;;;;;;;;;;;8.20;1.00;;;;;;6100022;23;19901;-77
2022/11/18 01:16:08;;;;;;;;;;;8.20;1.00;;;;;;6100033;23;19928;-77
2022/11/18 01:18:33;;;;;;;;;;;8.20;1.00;;;;;;6100493;23;19901;-78
2022/11/18 01:20:59;;;;;;;;;;;8.10;1.00;;;;;;6100423;23;20368;-77
2022/11/18 01:23:25;;;;;;;;;;;8.10;1.00;;;;;;6100233;23;19924;-77
2022/11/18 01:25:51;;;;;;;;;;;8.10;1.00;;;;;;6100345;23;20356;-77
2022/11/18 01:28:17;;;;;;;;;;;8.10;1.00;;;;;;6100420;23;19908;-77
2022/11/18 01:30:43;;;;;;;;;;;8.10;1.00;;;;;;6100381;23;19901;-77
2022/11/18 01:33:08;;;;;;;;;;;8.10;1.00;;;;;;6100389;23;20332;-77
2022/11/18 01:35:35;;;;;;;;;;;8.00;1.00;;;;;;6100362;23;19909;-77
2022/11/18 01:38:01;;;;;;;;;;;8.10;1.00;;;;;;6100965;23;19937;-77
2022/11/18 01:40:28;;;;;;;;;;;8.00;1.00;;;;;;6118401;23;19916;-78
2022/11/18 01:42:53;;;;;;;;;;;8.10;1.00;;;;;;6129409;23;20312;-78
2022/11/18 01:45:25;;;;;;;;;;;8.10;29.80;;;;;;6129351;23;19904;-77
2022/11/18 01:47:54;;;;;;;;;;;8.10;1.00;;;;;;6130099;23;19901;-77
2022/11/18 01:50:20;;;;;;;;;;;8.10;1.00;;;;;;6130027;23;19983;-77
2022/11/18 01:52:47;;;;;;;;;;;8.20;7.10;;;;;;6129590;23;19901;-77
2022/11/18 01:55:16;;;;;;;;;;;8.20;28.30;;;;;;6129357;23;20240;-78
2022/11/18 01:57:43;;;;;;;;;;;8.20;1.00;;;;;;6129888;23;20021;-78
2022/11/18 02:00:08;;;;;;;;;;;8.30;10.40;;;;;;6129391;23;19907;-78
2022/11/18 02:02:35;;;;;;;;;;;8.30;1.00;;;;;;6129663;23;19924;-78
2022/11/18 02:05:02;;;;;;;;;;;8.30;1.00;;;;;;6129370;23;19900;-77
2022/11/18 02:07:27;;;;;;;;;;;8.30;1.00;;;;;;6129601;23;19963;-77
2022/11/18 02:09:54;;;;;;;;;;;8.40;1.00;;;;;;6129593;23;19928;-77
2022/11/18 02:12:20;;;;;;;;;;;8.30;1.00;;;;;;6129735;23;19952;-78
2022/11/18 02:14:46;;;;;;;;;;;8.30;1.00;;;;;;6127621;23;19908;-78
2022/11/18 02:17:30;;;;;;;;;;;8.30;1.00;;;;;;6129414;23;19901;-78
2022/11/18 02:20:12;;;;;;;;;;;8.30;1.00;;;;;;6129503;23;19901;-77
2022/11/18 02:22:51;;;;;;;;;;;8.30;1.00;;;;;;6129465;23;20273;-77
2022/11/18 02:25:19;;;;;;;;;;;8.30;1.00;;;;;;6129407;23;19917;-77
2022/11/18 02:28:07;;;;;;;;;;;8.20;22.50;;;;;;6129247;23;19901;-77
2022/11/18 02:30:37;;;;;;;;;;;8.20;21.80;;;;;;6129281;23;19952;-77
2022/11/18 02:33:06;;;;;;;;;;;8.20;55.40;;;;;;6129633;23;19900;-77
2022/11/18 02:35:44;;;;;;;;;;;8.20;44.60;;;;;;6129220;23;20003;-78
2022/11/18 02:38:16;;;;;;;;;;;8.20;39.60;;;;;;6127537;23;20387;-78
2022/11/18 02:40:43;;;;;;;;;;;8.30;1.00;;;;;;6129168;23;19913;-77
2022/11/18 02:43:12;;;;;;;;;;;8.30;10.30;;;;;;6129200;23;19904;-77
2022/11/18 02:45:40;;;;;;;;;;;8.20;17.50;;;;;;6128944;23;19948;-78
2022/11/18 02:48:07;;;;;;;;;;;8.10;94.40;;;;;;6129181;23;19901;-77
2022/11/18 02:50:34;;;;;;;;;;;8.20;83.70;;;;;;6127612;23;20321;-78
2022/11/18 02:53:02;;;;;;;;;;;8.20;71.00;;;;;;6129016;23;19901;-77
2022/11/18 02:55:28;;;;;;;;;;;8.20;56.00;;;;;;6128777;23;19912;-77
2022/11/18 02:57:55;;;;;;;;;;;8.20;72.20;;;;;;6129171;23;19901;-78
2022/11/18 03:00:20;;;;;;;;;;;8.20;87.40;;;;;;6129478;23;19901;-79
2022/11/18 03:02:47;;;;;;;;;;;8.20;92.90;;;;;;6127173;23;19900;-78
2022/11/18 03:05:19;;;;;;;;;;;8.30;83.40;;;;;;6129137;23;20375;-77
2022/11/18 03:07:46;;;;;;;;;;;8.20;89.40;;;;;;6129262;23;19901;-77
2022/11/18 03:10:12;;;;;;;;;;;8.20;99.90;;;;;;6128958;23;19900;-77
2022/11/18 03:12:47;;;;;;;;;;;8.20;99.90;;;;;;6128738;23;19901;-77
2022/11/18 03:15:39;;;;;;;;;;;8.30;63.20;;;;;;6128919;23;20324;-78
2022/11/18 03:18:20;;;;;;;;;;;8.30;35.70;;;;;;6125805;23;19908;-77
2022/11/18 03:20:48;;;;;;;;;;;8.30;13.30;;;;;;6128665;23;20316;-77
2022/11/18 03:23:23;;;;;;;;;;;8.30;52.90;;;;;;6129076;23;19976;-77
2022/11/18 03:25:51;;;;;;;;;;;8.30;74.10;;;;;;6128782;23;20045;-77
2022/11/18 03:28:29;;;;;;;;;;;8.30;8.20;;;;;;6127064;23;19916;-78
2022/11/18 03:31:13;;;;;;;;;;;8.40;6.40;;;;;;6128932;23;20299;-78
2022/11/18 03:33:44;;;;;;;;;;;8.30;12.00;;;;;;6128342;23;20319;-78
2022/11/18 03:36:11;;;;;;;;;;;8.30;1.00;;;;;;6126982;23;20302;-78
2022/11/18 03:38:39;;;;;;;;;;;8.30;2.10;;;;;;6128195;23;20320;-77
2022/11/18 03:47:01;;;;;;;;;;;8.30;1.00;;;;;;6128297;23;19912;-78
2022/11/18 03:49:33;;;;;;;;;;;8.30;1.00;;;;;;6128086;23;19909;-77
2022/11/18 03:52:05;;;;;;;;;;;8.30;1.00;;;;;;6128652;23;19905;-77
2022/11/18 03:54:32;;;;;;;;;;;8.30;1.00;;;;;;6128398;23;19905;-78
2022/11/18 03:57:14;;;;;;;;;;;8.30;1.00;;;;;;6128282;23;19901;-78
2022/11/18 03:59:54;;;;;;;;;;;8.30;58.50;;;;;;6128443;23;19947;-78
2022/11/18 04:02:20;;;;;;;;;;;8.20;69.20;;;;;;6128800;23;19955;-77
2022/11/18 04:04:48;;;;;;;;;;;8.30;10.00;;;;;;6128240;23;19904;-79
2022/11/18 04:07:13;;;;;;;;;;;8.20;1.00;;;;;;6128648;23;19908;-79
2022/11/18 04:09:46;;;;;;;;;;;8.20;68.90;;;;;;6128095;23;20235;-75
2022/11/18 04:12:14;;;;;;;;;;;8.20;9.70;;;;;;6128116;23;19945;-77
2022/11/18 04:14:42;;;;;;;;;;;8.20;93.10;;;;;;6127975;23;19909;-77
2022/11/18 04:17:14;;;;;;;;;;;8.10;99.90;;;;;;6126646;23;19901;-77
2022/11/18 04:19:40;;;;;;;;;;;8.20;67.10;;;;;;6128801;23;20304;-79
2022/11/18 04:22:06;;;;;;;;;;;8.10;77.60;;;;;;6128047;23;19927;-79
2022/11/18 04:24:32;;;;;;;;;;;8.10;50.00;;;;;;6128299;23;19988;-78
2022/11/18 04:26:57;;;;;;;;;;;8.10;60.80;;;;;;6128352;23;19901;-77
2022/11/18 04:29:23;;;;;;;;;;;8.00;84.00;;;;;;6127757;23;19901;-79
2022/11/18 04:31:49;;;;;;;;;;;8.10;99.90;;;;;;6128141;23;19959;-79
2022/11/18 04:34:14;;;;;;;;;;;8.10;99.90;;;;;;6128183;23;19952;-76
2022/11/18 04:36:40;;;;;;;;;;;8.10;99.90;;;;;;6126670;23;19908;-77
2022/11/18 04:39:05;;;;;;;;;;;8.10;99.90;;;;;;6128190;23;19951;-78
2022/11/18 04:44:15;;;;;;;;;;;8.00;99.90;;;;;;6127459;23;19908;-78
2022/11/18 04:46:41;;;;;;;;;;;8.10;99.90;;;;;;6127692;23;20240;-78
2022/11/18 04:49:07;;;;;;;;;;;8.10;99.90;;;;;;6128118;23;19900;-76
2022/11/18 04:51:33;;;;;;;;;;;8.10;99.90;;;;;;6128035;23;19935;-77
2022/11/18 04:53:59;;;;;;;;;;;8.00;99.90;;;;;;6127932;23;19905;-78
2022/11/18 04:56:24;;;;;;;;;;;8.00;99.90;;;;;;6127899;23;20036;-78
2022/11/18 04:58:50;;;;;;;;;;;8.00;99.90;;;;;;6127998;23;19901;-77
2022/11/18 05:01:15;;;;;;;;;;;7.90;99.90;;;;;;6127783;23;19959;-77
2022/11/18 05:03:41;;;;;;;;;;;7.90;99.90;;;;;;6128005;23;19901;-79
2022/11/18 05:06:07;;;;;;;;;;;8.00;99.90;;;;;;6128770;23;19928;-77
2022/11/18 05:08:32;;;;;;;;;;;8.00;99.90;;;;;;6128361;23;19952;-78
2022/11/18 05:12:47;;;;;;;;;;;7.90;99.90;;;;;;6126334;23;19908;-77
2022/11/18 05:13:43;;;;;;;;;;;7.90;99.90;;;;;;6127400;23;20244;-79
2022/11/18 05:16:09;;;;;;;;;;;7.90;99.90;;;;;;6128216;23;19915;-78
2022/11/18 05:18:34;;;;;;;;;;;7.90;99.90;;;;;;6127661;23;19949;-77
2022/11/18 05:21:03;;;;;;;;;;;7.90;99.90;;;;;;6127549;23;19901;-77
2022/11/18 05:23:29;;;;;;;;;;;7.90;99.90;;;;;;6127903;23;19913;-78
2022/11/18 05:25:54;;;;;;;;;;;7.90;99.90;;;;;;6127896;23;19907;-77
2022/11/18 05:28:20;;;;;;;;;;;7.80;99.90;;;;;;6126387;23;19910;-78
2022/11/18 05:30:46;;;;;;;;;;;7.80;99.90;;;;;;6127955;23;19983;-77
2022/11/18 05:33:11;;;;;;;;;;;7.80;99.90;;;;;;6127858;23;20243;-77
2022/11/18 05:35:37;;;;;;;;;;;7.80;99.90;;;;;;6128025;23;19904;-77
2022/11/18 05:38:02;;;;;;;;;;;7.70;99.90;;;;;;6127638;23;19963;-77
2022/11/18 05:40:28;;;;;;;;;;;7.70;99.90;;;;;;6127394;23;19901;-77
2022/11/18 05:43:12;;;;;;;;;;;7.70;99.90;;;;;;6128218;23;19905;-78
2022/11/18 05:45:38;;;;;;;;;;;7.70;99.90;;;;;;6128024;23;19956;-77
2022/11/18 05:48:03;;;;;;;;;;;7.70;99.90;;;;;;6126127;23;19901;-78
2022/11/18 05:50:30;;;;;;;;;;;7.70;99.90;;;;;;6127559;23;19905;-78
2022/11/18 05:52:55;;;;;;;;;;;7.70;99.90;;;;;;6127839;23;19936;-77
2022/11/18 05:55:22;;;;;;;;;;;7.70;99.90;;;;;;6127632;23;19905;-77
2022/11/18 05:57:48;;;;;;;;;;;7.70;99.90;;;;;;6127405;23;19907;-77
2022/11/18 06:00:14;;;;;;;;;;;7.70;99.90;;;;;;6129810;23;19936;-79
2022/11/18 06:02:40;;;;;;;;;;;7.80;99.90;;;;;;6129663;23;19904;-78
2022/11/18 06:05:06;;;;;;;;;;;7.80;99.90;;;;;;6129728;23;19901;-78
2022/11/18 06:07:34;;;;;;;;;;;7.80;99.90;;;;;;6129396;23;19956;-79
2022/11/18 06:10:01;;;;;;;;;;;7.80;99.90;;;;;;6129675;23;20240;-77
2022/11/18 06:12:31;;;;;;;;;;;7.80;99.90;;;;;;6129876;23;19984;-77
2022/11/18 06:14:59;;;;;;;;;;;7.80;99.90;;;;;;6128854;23;19908;-77
2022/11/18 06:17:30;;;;;;;;;;;7.80;99.90;;;;;;6129312;23;19983;-77
2022/11/18 06:19:55;;;;;;;;;;;7.70;99.90;;;;;;6129621;23;19900;-77
2022/11/18 06:22:21;;;;;;;;;;;7.70;99.90;;;;;;6129363;23;19908;-76
2022/11/18 06:24:47;;;;;;;;;;;7.70;99.90;;;;;;6128897;23;19901;-78
2022/11/18 06:27:13;;;;;;;;;;;7.70;99.90;;;;;;6129096;23;19951;-78
2022/11/18 06:29:38;;;;;;;;;;;7.70;99.90;;;;;;6129531;23;19905;-78
2022/11/18 06:32:04;;;;;;;;;;;7.80;99.90;;;;;;6129396;23;20027;-76
2022/11/18 06:34:30;;;;;;;;;;;7.80;99.90;;;;;;6129260;23;19904;-76
2022/11/18 06:36:55;;;;;;;;;;;7.80;99.90;;;;;;6129668;23;19905;-76
2022/11/18 06:39:21;;;;;;;;;;;7.80;99.90;;;;;;6129265;23;19901;-77
2022/11/18 06:41:46;;;;;;;;;;;7.80;99.90;;;;;;6126183;23;20332;-79
2022/11/18 06:44:12;;;;;;;;;;;7.80;99.90;;;;;;6129052;23;20309;-76
2022/11/18 06:46:56;;;;;;;;;;;7.80;99.90;;;;;;6129244;23;19907;-77
2022/11/18 06:49:22;;;;;;;;;;;7.80;99.90;;;;;;6129410;23;20239;-78
2022/11/18 06:51:48;;;;;;;;;;;7.70;99.90;;;;;;6129088;23;19900;-77
2022/11/18 06:54:13;;;;;;;;;;;7.80;99.90;;;;;;6128820;23;20240;-78
2022/11/18 06:56:39;;;;;;;;;;;7.70;99.90;;;;;;6129416;23;19904;-77
2022/11/18 06:59:04;;;;;;;;;;;7.70;99.90;;;;;;6128825;23;20332;-77
2022/11/18 07:01:33;;;;;;;;;;;7.70;99.90;;;;;;6128845;23;19901;-77
2022/11/18 07:03:59;;;;;;;;;;;7.60;99.90;;;;;;6128464;23;19901;-76
2022/11/18 07:06:26;;;;;;;;;;;7.60;99.90;;;;;;6128873;23;19979;-77
2022/11/18 07:08:51;;;;;;;;;;;7.50;99.90;;;;;;6128694;23;19901;-77
2022/11/18 07:11:18;;;;;;;;;;;7.40;99.90;;;;;;6128980;23;19900;-77
2022/11/18 07:13:44;;;;;;;;;;;7.50;99.90;;;;;;6129447;23;19907;-77
2022/11/18 07:16:13;;;;;;;;;;;7.40;99.90;;;;;;6128720;23;19940;-76
2022/11/18 07:18:40;;;;;;;;;;;7.50;99.90;;;;;;6128633;23;19959;-77
2022/11/18 07:21:10;;;;;;;;;;;7.50;99.90;;;;;;6128821;23;19900;-77
2022/11/18 07:23:36;;;;;;;;;;;7.60;99.90;;;;;;6128664;23;19971;-78
2022/11/18 07:26:01;;;;;;;;;;;7.60;99.90;;;;;;6128547;23;19907;-77
2022/11/18 07:28:28;;;;;;;;;;;7.70;99.90;;;;;;6129003;23;19901;-76
2022/11/18 07:31:02;;;;;;;;;;;7.60;99.90;;;;;;6128444;23;20316;-77
2022/11/18 07:33:28;;;;;;;;;;;7.60;99.90;;;;;;6128708;23;19933;-76
2022/11/18 07:35:54;;;;;;;;;;;7.70;99.90;;;;;;6128661;23;20321;-77
2022/11/18 07:38:22;;;;;;;;;;;7.70;92.20;;;;;;6130426;23;19904;-77
2022/11/18 07:40:48;;;;;;;;;;;7.70;16.40;;;;;;6128870;23;19919;-77
2022/11/18 07:43:14;;;;;;;;;;;7.70;21.50;;;;;;6128416;23;20296;-76
2022/11/18 07:45:39;;;;;;;;;;;7.70;53.10;;;;;;6128564;23;19904;-76
2022/11/18 07:48:05;;;;;;;;;;;7.80;1.00;;;;;;6128803;23;19907;-76
2022/11/18 07:50:30;;;;;;;;;;;7.80;1.00;;;;;;6128679;23;19907;-77
2022/11/18 07:52:56;;;;;;;;;;;7.80;1.00;;;;;;6128588;23;19928;-76
2022/11/18 07:55:22;;;;;;;;;;;7.90;1.00;;;;;;6129257;23;19943;-77
2022/11/18 07:57:48;;;;;;;;;;;8.00;1.00;;;;;;6128852;23;19900;-76
2022/11/18 08:00:13;;;;;;;;;;;8.10;1.00;;;;;;6128340;23;19900;-76
2022/11/18 08:02:39;;;;;;;;;;;8.20;1.00;;;;;;6128571;23;19905;-76
2022/11/18 08:05:05;;;;;;;;;;;8.30;1.00;;;;;;6128230;23;20247;-76
2022/11/18 08:07:30;;;;;;;;;;;8.50;1.00;;;;;;6126791;23;19901;-77
2022/11/18 08:09:56;;;;;;;;;;;8.60;1.00;;;;;;6128267;23;20288;-76
2022/11/18 08:12:21;;;;;;;;;;;8.80;99.90;;;;;;6128329;23;19936;-78
2022/11/18 08:14:47;;;;;;;;;;;8.90;99.90;;;;;;6128562;23;19905;-78
2022/11/18 08:17:12;;;;;;;;;;;9.40;99.90;;;;;;6128700;23;19928;-77
2022/11/18 08:19:38;;;;;;;;;;;9.90;99.90;;;;;;6127987;23;20268;-76
2022/11/18 08:22:03;;;;;;;;;;;10.50;99.90;;;;;;6128133;23;19901;-77
2022/11/18 08:24:29;;;;;;;;;;;11.10;99.90;;;;;;6128589;23;19904;-77
2022/11/18 08:26:55;;;;;;;;;;;11.30;99.90;;;;;;6128633;23;20313;-77
2022/11/18 08:29:20;;;;;;;;;;;11.60;99.90;;;;;;6128678;23;19901;-76
2022/11/18 08:31:46;;;;;;;;;;;11.90;99.90;;;;;;6128127;23;19923;-77
2022/11/18 08:34:11;;;;;;;;;;;12.20;99.90;;;;;;6126520;23;19901;-77
2022/11/18 08:36:37;;;;;;;;;;;12.40;99.90;;;;;;6128403;23;19932;-77
2022/11/18 08:39:04;;;;;;;;;;;12.40;99.90;;;;;;6128148;23;19936;-78
2022/11/18 08:41:34;;;;;;;;;;;12.80;93.90;;;;;;6128116;23;20340;-77
2022/11/18 08:44:00;;;;;;;;;;;13.00;91.80;;;;;;6128735;23;19928;-78
2022/11/18 08:46:26;;;;;;;;;;;13.40;79.70;;;;;;6128124;23;19901;-77
2022/11/18 08:48:52;;;;;;;;;;;13.70;61.20;;;;;;6128606;23;19905;-77
2022/11/18 08:51:17;;;;;;;;;;;14.20;56.00;;;;;;6128290;23;19908;-77
2022/11/18 08:53:43;;;;;;;;;;;13.90;43.50;;;;;;6127948;23;19901;-77
2022/11/18 08:56:14;;;;;;;;;;;14.30;39.50;;;;;;6128020;23;20213;-78
2022/11/18 08:58:40;;;;;;;;;;;14.60;33.90;;;;;;6128129;23;19987;-77
2022/11/18 09:01:06;;;;;;;;;;;15.20;28.10;;;;;;6128151;23;19956;-78
2022/11/18 09:03:31;;;;;;;;;;;15.30;23.00;;;;;;6128459;23;19900;-77
2022/11/18 09:06:10;;;;;;;;;;;15.70;21.10;;;;;;6127904;23;19901;-79
2022/11/18 09:08:36;;;;;;;;;;;16.00;16.20;;;;;;6127941;23;19901;-78
2022/11/18 09:11:10;;;;;;;;;;;16.90;9.30;;;;;;6128186;23;19901;-77
2022/11/18 09:13:36;;;;;;;;;;;16.60;7.40;;;;;;6128300;23;19901;-76
2022/11/18 09:16:02;;;;;;;;;;;16.80;4.90;;;;;;6127696;23;19905;-77
2022/11/18 09:18:28;;;;;;;;;;;17.30;3.40;;;;;;6128080;23;19936;-77
2022/11/18 09:20:57;;;;;;;;;;;17.20;2.90;;;;;;6127644;23;19908;-78
2022/11/18 09:23:23;;;;;;;;;;;18.10;1.20;;;;;;6126304;23;19901;-79
2022/11/18 09:25:55;;;;;;;;;;;18.20;1.00;;;;;;6127673;23;19900;-77
2022/11/18 09:28:21;;;;;;;;;;;18.90;1.00;;;;;;6098471;23;19909;-78
2022/11/18 09:30:46;;;;;;;;;;;19.30;1.00;;;;;;6129399;23;19951;-78
2022/11/18 09:33:12;;;;;;;;;;;19.70;1.00;;;;;;6128351;23;19900;-79
2022/11/18 09:35:41;;;;;;;;;;;19.70;1.00;;;;;;6129597;23;19905;-77
2022/11/18 09:38:06;;;;;;;;;;;20.90;1.00;;;;;;6127598;23;19907;-77
2022/11/18 09:40:33;;;;;;;;;;;20.50;1.00;;;;;;6130498;23;20280;-78
2022/11/18 09:43:05;;;;;;;;;;;19.60;1.00;;;;;;6129774;23;19913;-78
2022/11/18 09:45:34;;;;;;;;;;;20.20;1.00;;;;;;6129862;23;19905;-78
2022/11/18 09:48:05;;;;;;;;;;;20.00;1.00;;;;;;6129558;23;19905;-77
2022/11/18 09:50:30;;;;;;;;;;;20.40;1.00;;;;;;6129156;23;19902;-77
2022/11/18 09:52:59;;;;;;;;;;;20.40;1.00;;;;;;6129043;23;20244;-77
2022/11/18 09:55:24;;;;;;;;;;;20.80;1.00;;;;;;6129496;23;19911;-78
2022/11/18 09:57:51;;;;;;;;;;;21.10;1.00;;;;;;6129153;23;20223;-77
2022/11/18 10:00:19;;;;;;;;;;;21.50;1.00;;;;;;6130133;23;19905;-78
2022/11/18 10:02:44;;;;;;;;;;;21.10;1.00;;;;;;6129232;23;19948;-79
2022/11/18 10:05:15;;;;;;;;;;;21.90;1.00;;;;;;6129100;23;19905;-79
2022/11/18 10:07:44;;;;;;;;;;;22.90;1.00;;;;;;6129251;23;19901;-76
2022/11/18 10:10:14;;;;;;;;;;;22.40;1.00;;;;;;6129190;23;19901;-79
2022/11/18 10:12:47;;;;;;;;;;;23.50;1.00;;;;;;6128930;23;19993;-78
2022/11/18 10:15:16;;;;;;;;;;;23.00;1.00;;;;;;6126732;23;19912;-77
2022/11/18 10:17:42;;;;;;;;;;;22.70;1.00;;;;;;6128750;23;19901;-77
2022/11/18 10:20:13;;;;;;;;;;;23.50;1.00;;;;;;6129220;23;19901;-78
2022/11/18 10:22:46;;;;;;;;;;;22.80;1.00;;;;;;6129030;23;19901;-79
2022/11/18 10:25:15;;;;;;;;;;;22.40;1.00;;;;;;6128899;23;19901;-78
2022/11/18 10:33:20;;;;;;;;;;;24.90;1.00;;;;;;6128244;23;19960;-76
2022/11/18 10:35:45;;;;;;;;;;;22.60;1.00;;;;;;6127963;23;20291;-76
2022/11/18 10:38:14;;;;;;;;;;;22.90;1.00;;;;;;6127614;23;19947;-75
2022/11/18 10:40:44;;;;;;;;;;;24.20;1.00;;;;;;6102621;23;19908;-76
2022/11/18 10:43:10;;;;;;;;;;;24.10;1.00;;;;;;6128619;23;19927;-77
2022/11/18 10:45:35;;;;;;;;;;;23.30;1.00;;;;;;6128337;23;20326;-76
2022/11/18 10:48:13;;;;;;;;;;;24.60;1.00;;;;;;6127438;23;19901;-76
2022/11/18 10:50:40;;;;;;;;;;;24.60;1.00;;;;;;6127825;23;20322;-76
2022/11/18 10:53:26;;;;;;;;;;;25.50;1.00;;;;;;6127823;23;19972;-78
2022/11/18 10:55:59;;;;;;;;;;;26.10;1.00;;;;;;6128077;23;19932;-78
2022/11/18 10:58:25;;;;;;;;;;;26.80;1.00;;;;;;6127138;23;20246;-78
2022/11/18 11:00:50;;;;;;;;;;;27.10;1.00;;;;;;6127851;23;19901;-77
2022/11/18 11:03:28;;;;;;;;;;;25.90;1.00;;;;;;6127780;23;19995;-76
2022/11/18 11:06:11;;;;;;;;;;;25.80;1.00;;;;;;6127225;23;19901;-77
2022/11/18 11:08:45;;;;;;;;;;;25.10;1.00;;;;;;6127009;23;19908;-76
2022/11/18 11:11:17;;;;;;;;;;;24.20;1.00;;;;;;6128127;23;19928;-76
2022/11/18 11:13:43;;;;;;;;;;;24.30;1.00;;;;;;6101588;23;20351;-76
2022/11/18 11:16:09;;;;;;;;;;;24.50;1.00;;;;;;6127781;23;20323;-78
2022/11/18 11:18:40;;;;;;;;;;;23.20;1.00;;;;;;6101252;23;19900;-75
2022/11/18 11:21:18;;;;;;;;;;;23.90;1.00;;;;;;6126297;23;19900;-78
2022/11/18 11:23:45;;;;;;;;;;;25.20;1.00;;;;;;6127876;23;19901;-77
2022/11/18 11:26:13;;;;;;;;;;;24.70;1.00;;;;;;6127568;23;19901;-78
2022/11/18 11:28:44;;;;;;;;;;;24.60;1.00;;;;;;6095049;23;19933;-77
2022/11/18 11:31:28;;;;;;;;;;;25.40;1.00;;;;;;6098275;23;19980;-78
2022/11/18 11:34:12;;;;;;;;;;;25.80;1.00;;;;;;6099004;23;19905;-76
2022/11/18 11:36:46;;;;;;;;;;;26.30;1.00;;;;;;6098054;23;19909;-76
2022/11/18 11:39:36;;;;;;;;;;;26.10;1.00;;;;;;6098415;23;19901;-78
2022/11/18 11:42:05;;;;;;;;;;;27.00;1.00;;;;;;6096748;23;19905;-78
2022/11/18 11:44:40;;;;;;;;;;;28.00;1.00;;;;;;6087419;23;19905;-78
2022/11/18 11:50:22;;;;;;;;;;;27.30;1.00;;;;;;6097671;23;19932;-76
2022/11/18 11:52:54;;;;;;;;;;;26.90;1.00;;;;;;6097871;23;19984;-76
2022/11/18 11:55:25;;;;;;;;;;;25.80;1.00;;;;;;6097511;23;19901;-77
2022/11/18 11:58:00;;;;;;;;;;;24.70;1.00;;;;;;6097460;23;19905;-76
2022/11/18 12:00:27;;;;;;;;;;;24.90;1.00;;;;;;6097676;23;19983;-78
2022/11/18 12:03:10;;;;;;;;;;;25.60;1.00;;;;;;6097737;23;19956;-75
2022/11/18 12:05:38;;;;;;;;;;;25.90;1.00;;;;;;6095793;23;20297;-77
2022/11/18 12:08:20;;;;;;;;;;;27.00;1.00;;;;;;6097207;23;19981;-77
2022/11/18 12:10:45;;;;;;;;;;;24.80;1.00;;;;;;6097963;23;19955;-78
2022/11/18 12:13:20;;;;;;;;;;;24.80;1.00;;;;;;6097469;23;20331;-75
2022/11/18 12:15:48;;;;;;;;;;;26.10;1.00;;;;;;6097485;23;20213;-76
2022/11/18 12:18:32;;;;;;;;;;;25.00;1.00;;;;;;6097251;23;19901;-77
2022/11/18 12:20:58;;;;;;;;;;;25.10;1.00;;;;;;6097663;23;19901;-78
2022/11/18 12:23:27;;;;;;;;;;;27.50;1.00;;;;;;6097799;23;19952;-76
2022/11/18 12:25:55;;;;;;;;;;;27.00;1.00;;;;;;6097820;23;19928;-76
2022/11/18 12:28:42;;;;;;;;;;;26.00;1.00;;;;;;6097221;23;20238;-78
2022/11/18 12:31:14;;;;;;;;;;;26.20;1.00;;;;;;6096876;23;19920;-78
2022/11/18 12:33:44;;;;;;;;;;;28.70;1.00;;;;;;6098422;23;19901;-75
2022/11/18 12:36:23;;;;;;;;;;;29.80;1.00;;;;;;6097711;23;19952;-77
2022/11/18 12:38:48;;;;;;;;;;;27.30;1.00;;;;;;6097465;23;20347;-76
2022/11/18 12:43:45;;;;;;;;;;;27.60;1.00;;;;;;6097590;23;19901;-76
2022/11/18 12:44:22;;;;;;;;;;;28.20;1.00;;;;;;6097583;23;19908;-75
2022/11/18 12:46:49;;;;;;;;;;;29.50;1.00;;;;;;6097695;23;19992;-76
2022/11/18 12:49:21;;;;;;;;;;;30.00;1.00;;;;;;6097587;23;19972;-76
2022/11/18 12:51:47;;;;;;;;;;;27.90;1.00;;;;;;6097682;23;19901;-77
2022/11/18 12:54:31;;;;;;;;;;;28.00;1.00;;;;;;6097487;23;19909;-77
2022/11/18 12:56:58;;;;;;;;;;;28.00;1.00;;;;;;6097332;23;19948;-75
2022/11/18 12:59:32;;;;;;;;;;;25.60;1.00;;;;;;6097766;23;19901;-77
2022/11/18 13:02:04;;;;;;;;;;;26.70;1.00;;;;;;6097777;23;20280;-76
2022/11/18 13:04:30;;;;;;;;;;;28.30;1.00;;;;;;6097381;23;19955;-77
2022/11/18 13:06:59;;;;;;;;;;;26.90;1.00;;;;;;6098030;23;19941;-78
2022/11/18 13:09:25;;;;;;;;;;;26.70;1.00;;;;;;6100012;23;19933;-77
2022/11/18 13:11:51;;;;;;;;;;;25.40;1.00;;;;;;6100128;23;19901;-76
2022/11/18 13:20:19;;;;;;;;;;;24.10;1.00;;;;;;6099832;23;19909;-77
2022/11/18 13:25:33;;;;;;;;;;;20.60;1.00;;;;;;6099360;23;19952;-76
2022/11/18 13:28:05;;;;;;;;;;;19.30;1.00;;;;;;6099169;23;19901;-76
2022/11/18 13:30:32;;;;;;;;;;;18.50;1.00;;;;;;6073262;23;19916;-75
2022/11/18 13:32:58;;;;;;;;;;;17.70;1.00;;;;;;6099447;23;19917;-75
2022/11/18 13:35:26;;;;;;;;;;;16.80;1.00;;;;;;6099880;23;19902;-75
2022/11/18 13:37:53;;;;;;;;;;;16.10;1.00;;;;;;6097797;23;19901;-75
2022/11/18 13:40:29;;;;;;;;;;;15.40;8.90;;;;;;6099497;23;20351;-75
2022/11/18 13:42:55;;;;;;;;;;;15.00;19.50;;;;;;6099333;23;19905;-77
2022/11/18 13:45:23;;;;;;;;;;;14.50;23.20;;;;;;6099207;23;19932;-75
2022/11/18 13:47:56;;;;;;;;;;;14.20;30.10;;;;;;6099218;23;19949;-74
2022/11/18 13:50:24;;;;;;;;;;;14.20;30.10;;;;;;6099510;23;20197;-76
2022/11/18 13:53:13;;;;;;;;;;;15.00;23.10;;;;;;6099341;23;19901;-77
2022/11/18 13:55:43;;;;;;;;;;;15.50;15.80;;;;;;6099172;23;20283;-75
2022/11/18 13:58:17;;;;;;;;;;;20.20;3.50;;;;;;6098886;23;19920;-75
2022/11/18 14:00:52;;;;;;;;;;;20.60;1.00;;;;;;6099388;23;19902;-77
2022/11/18 14:03:38;;;;;;;;;;;19.30;1.00;;;;;;6099270;23;19906;-76
2022/11/18 14:06:04;;;;;;;;;;;18.40;1.00;;;;;;6098760;23;20276;-78
2022/11/18 14:08:29;;;;;;;;;;;17.50;1.00;;;;;;6098777;23;19901;-78
2022/11/18 14:10:55;;;;;;;;;;;16.90;1.00;;;;;;6099489;23;19908;-78
2022/11/18 14:13:26;;;;;;;;;;;16.90;1.00;;;;;;6099180;23;19901;-78
2022/11/18 14:15:53;;;;;;;;;;;19.60;1.00;;;;;;6099488;23;19901;-78
2022/11/18 14:18:22;;;;;;;;;;;23.70;1.00;;;;;;6097035;23;19905;-78
2022/11/18 14:20:51;;;;;;;;;;;25.40;1.00;;;;;;6099381;23;20226;-76
2022/11/18 14:23:19;;;;;;;;;;;25.80;1.00;;;;;;6098991;23;19923;-75
2022/11/18 14:25:44;;;;;;;;;;;23.40;1.00;;;;;;6097545;23;19906;-78
2022/11/18 14:28:21;;;;;;;;;;;21.60;1.00;;;;;;6098991;23;19901;-77
2022/11/18 14:31:02;;;;;;;;;;;21.80;1.00;;;;;;6072648;23;19937;-77
2022/11/18 14:33:29;;;;;;;;;;;20.60;1.00;;;;;;6099405;23;20284;-78
2022/11/18 14:36:09;;;;;;;;;;;19.70;1.00;;;;;;6098691;23;19908;-78
2022/11/18 14:38:36;;;;;;;;;;;18.10;1.00;;;;;;6098736;23;19992;-78
2022/11/18 14:41:03;;;;;;;;;;;16.80;1.00;;;;;;6099083;23;19980;-77
2022/11/18 14:43:30;;;;;;;;;;;16.00;1.00;;;;;;6099253;23;19912;-77
2022/11/18 14:46:00;;;;;;;;;;;15.70;1.00;;;;;;6098835;23;20332;-78
2022/11/18 14:48:27;;;;;;;;;;;15.80;1.00;;;;;;6098381;23;19976;-77
2022/11/18 14:50:53;;;;;;;;;;;15.70;1.00;;;;;;6098826;23;19908;-77
2022/11/18 14:53:18;;;;;;;;;;;16.10;1.00;;;;;;6098802;23;19941;-77
2022/11/18 14:55:46;;;;;;;;;;;16.50;1.00;;;;;;6098818;23;19908;-77
2022/11/18 14:58:13;;;;;;;;;;;17.00;1.00;;;;;;6098294;23;20290;-77
2022/11/18 15:00:39;;;;;;;;;;;16.90;1.00;;;;;;6098833;23;19932;-75
2022/11/18 15:03:05;;;;;;;;;;;16.70;1.00;;;;;;6098659;23;19905;-76
2022/11/18 15:05:30;;;;;;;;;;;17.00;1.00;;;;;;6098764;23;19912;-78
2022/11/18 15:07:56;;;;;;;;;;;17.60;1.00;;;;;;6098478;23;19924;-77
2022/11/18 15:10:21;;;;;;;;;;;17.60;1.00;;;;;;6069034;23;19960;-77